Las Palomas, New Mexico
Current Conditions -  °F | °C
As of 1:53 PM on Thursday 18 Dec 2014 (Local Time) from KTCS Reporting Station
Overcast Overcast  
Wind Chill: 45°   Ceiling: 6500
Heat Index: 49°   Visibility: 10mi
Dew Point: 28°   Wind: 9mph
Humidity: 44%   Direction: 160°SSE
Pressure: 30.04"   Gusts: NA
Location:  33.1162°N, 107.291°W
Report Text: KTCS 182053Z AUTO 16008KT 10SM BKN065 OVC075 09/M02 A3004 RMK AO2 SLP146 T00941022 56021 TSNO
Loading
Personal Weather Stations






























Interactive Weather Map New forecast layout! Learn more

10-Day Weather Forecast

Advertisements
Track Severe Weather on mobile